sensor_id;sensor_type;location;lat;lon;timestamp;P1;durP1;ratioP1;P2;durP2;ratioP2
43311;SDS011;30041;48.300;16.352;2023-04-15T00:01:47;9.40;;;4.10;;
43311;SDS011;30041;48.300;16.352;2023-04-15T00:04:13;9.00;;;3.83;;
43311;SDS011;30041;48.300;16.352;2023-04-15T00:06:38;11.07;;;4.28;;
43311;SDS011;30041;48.300;16.352;2023-04-15T00:09:04;8.45;;;4.03;;
43311;SDS011;30041;48.300;16.352;2023-04-15T00:11:30;11.60;;;3.90;;
43311;SDS011;30041;48.300;16.352;2023-04-15T00:13:55;9.60;;;4.03;;
43311;SDS011;30041;48.300;16.352;2023-04-15T00:16:21;8.25;;;3.83;;
43311;SDS011;30041;48.300;16.352;2023-04-15T00:18:46;8.45;;;4.10;;
43311;SDS011;30041;48.300;16.352;2023-04-15T00:21:12;8.02;;;3.45;;
43311;SDS011;30041;48.300;16.352;2023-04-15T00:23:37;7.68;;;3.53;;
43311;SDS011;30041;48.300;16.352;2023-04-15T00:26:02;9.20;;;3.53;;
43311;SDS011;30041;48.300;16.352;2023-04-15T00:28:28;11.55;;;4.00;;
43311;SDS011;30041;48.300;16.352;2023-04-15T00:30:54;6.85;;;3.20;;
43311;SDS011;30041;48.300;16.352;2023-04-15T00:33:19;7.95;;;3.63;;
43311;SDS011;30041;48.300;16.352;2023-04-15T00:35:45;8.07;;;3.90;;
43311;SDS011;30041;48.300;16.352;2023-04-15T00:38:10;7.22;;;3.15;;
43311;SDS011;30041;48.300;16.352;2023-04-15T00:40:36;9.60;;;3.70;;
43311;SDS011;30041;48.300;16.352;2023-04-15T00:43:02;9.27;;;3.90;;
43311;SDS011;30041;48.300;16.352;2023-04-15T00:45:27;6.25;;;2.88;;
43311;SDS011;30041;48.300;16.352;2023-04-15T00:47:53;5.45;;;2.58;;
43311;SDS011;30041;48.300;16.352;2023-04-15T00:50:19;9.48;;;3.53;;
43311;SDS011;30041;48.300;16.352;2023-04-15T00:52:44;7.00;;;3.00;;
43311;SDS011;30041;48.300;16.352;2023-04-15T00:55:10;7.13;;;3.13;;
43311;SDS011;30041;48.300;16.352;2023-04-15T00:57:35;7.45;;;3.17;;
43311;SDS011;30041;48.300;16.352;2023-04-15T01:00:03;7.47;;;3.20;;
43311;SDS011;30041;48.300;16.352;2023-04-15T01:02:29;7.50;;;3.08;;
43311;SDS011;30041;48.300;16.352;2023-04-15T01:04:58;6.63;;;3.20;;
43311;SDS011;30041;48.300;16.352;2023-04-15T01:07:23;5.55;;;2.83;;
43311;SDS011;30041;48.300;16.352;2023-04-15T01:09:49;6.90;;;3.00;;
43311;SDS011;30041;48.300;16.352;2023-04-15T01:12:15;7.00;;;2.83;;
43311;SDS011;30041;48.300;16.352;2023-04-15T01:14:41;6.55;;;2.70;;
43311;SDS011;30041;48.300;16.352;2023-04-15T01:17:07;5.50;;;2.55;;
43311;SDS011;30041;48.300;16.352;2023-04-15T01:19:33;7.32;;;2.85;;
43311;SDS011;30041;48.300;16.352;2023-04-15T01:22:01;6.97;;;2.90;;
43311;SDS011;30041;48.300;16.352;2023-04-15T01:24:27;6.25;;;2.85;;
43311;SDS011;30041;48.300;16.352;2023-04-15T01:26:55;4.28;;;2.05;;
43311;SDS011;30041;48.300;16.352;2023-04-15T01:29:21;5.10;;;2.50;;
43311;SDS011;30041;48.300;16.352;2023-04-15T01:31:53;5.00;;;2.30;;
43311;SDS011;30041;48.300;16.352;2023-04-15T01:34:20;6.05;;;2.55;;
43311;SDS011;30041;48.300;16.352;2023-04-15T01:36:46;5.40;;;2.40;;
43311;SDS011;30041;48.300;16.352;2023-04-15T01:39:12;5.32;;;2.40;;
43311;SDS011;30041;48.300;16.352;2023-04-15T01:41:37;6.47;;;2.50;;
43311;SDS011;30041;48.300;16.352;2023-04-15T01:44:03;5.00;;;2.40;;
43311;SDS011;30041;48.300;16.352;2023-04-15T01:46:28;5.68;;;2.40;;
43311;SDS011;30041;48.300;16.352;2023-04-15T01:48:54;5.65;;;2.50;;
43311;SDS011;30041;48.300;16.352;2023-04-15T01:51:19;5.82;;;2.10;;
43311;SDS011;30041;48.300;16.352;2023-04-15T01:53:45;5.03;;;2.40;;
43311;SDS011;30041;48.300;16.352;2023-04-15T01:56:10;6.50;;;2.53;;
43311;SDS011;30041;48.300;16.352;2023-04-15T01:58:36;5.68;;;2.30;;
43311;SDS011;30041;48.300;16.352;2023-04-15T02:01:01;4.90;;;2.30;;
43311;SDS011;30041;48.300;16.352;2023-04-15T02:03:27;5.45;;;2.55;;
43311;SDS011;30041;48.300;16.352;2023-04-15T02:05:53;5.20;;;2.17;;
43311;SDS011;30041;48.300;16.352;2023-04-15T02:08:18;3.58;;;1.80;;
43311;SDS011;30041;48.300;16.352;2023-04-15T02:10:44;5.80;;;2.28;;
43311;SDS011;30041;48.300;16.352;2023-04-15T02:13:09;4.72;;;2.20;;
43311;SDS011;30041;48.300;16.352;2023-04-15T02:15:35;5.38;;;2.08;;
43311;SDS011;30041;48.300;16.352;2023-04-15T02:18:00;4.30;;;1.77;;
43311;SDS011;30041;48.300;16.352;2023-04-15T02:20:26;4.30;;;1.80;;
43311;SDS011;30041;48.300;16.352;2023-04-15T02:22:52;4.70;;;2.00;;
43311;SDS011;30041;48.300;16.352;2023-04-15T02:25:17;4.22;;;1.92;;
43311;SDS011;30041;48.300;16.352;2023-04-15T02:27:43;3.80;;;1.75;;
43311;SDS011;30041;48.300;16.352;2023-04-15T02:30:08;4.28;;;1.85;;
43311;SDS011;30041;48.300;16.352;2023-04-15T02:32:34;3.97;;;1.75;;
43311;SDS011;30041;48.300;16.352;2023-04-15T02:35:03;4.78;;;1.77;;
43311;SDS011;30041;48.300;16.352;2023-04-15T02:37:29;3.65;;;1.90;;
43311;SDS011;30041;48.300;16.352;2023-04-15T02:39:57;3.80;;;1.88;;
43311;SDS011;30041;48.300;16.352;2023-04-15T02:42:22;4.95;;;1.90;;
43311;SDS011;30041;48.300;16.352;2023-04-15T02:44:48;4.93;;;1.90;;
43311;SDS011;30041;48.300;16.352;2023-04-15T02:47:13;3.65;;;1.52;;
43311;SDS011;30041;48.300;16.352;2023-04-15T02:49:39;5.82;;;1.90;;
43311;SDS011;30041;48.300;16.352;2023-04-15T02:52:04;4.55;;;1.80;;
43311;SDS011;30041;48.300;16.352;2023-04-15T02:54:30;3.70;;;1.73;;
43311;SDS011;30041;48.300;16.352;2023-04-15T02:56:56;4.65;;;1.50;;
43311;SDS011;30041;48.300;16.352;2023-04-15T02:59:21;3.05;;;1.42;;
43311;SDS011;30041;48.300;16.352;2023-04-15T03:01:47;4.35;;;1.63;;
43311;SDS011;30041;48.300;16.352;2023-04-15T03:04:12;3.20;;;1.35;;
43311;SDS011;30041;48.300;16.352;2023-04-15T03:06:37;3.47;;;1.42;;
43311;SDS011;30041;48.300;16.352;2023-04-15T03:09:03;3.47;;;1.52;;
43311;SDS011;30041;48.300;16.352;2023-04-15T03:11:29;2.97;;;1.50;;
43311;SDS011;30041;48.300;16.352;2023-04-15T03:13:54;3.47;;;1.63;;
43311;SDS011;30041;48.300;16.352;2023-04-15T03:16:20;3.55;;;1.40;;
43311;SDS011;30041;48.300;16.352;2023-04-15T03:18:45;4.07;;;1.80;;
43311;SDS011;30041;48.300;16.352;2023-04-15T03:21:10;2.83;;;1.30;;
43311;SDS011;30041;48.300;16.352;2023-04-15T03:23:36;3.15;;;1.40;;
43311;SDS011;30041;48.300;16.352;2023-04-15T03:26:03;2.97;;;1.42;;
43311;SDS011;30041;48.300;16.352;2023-04-15T03:28:29;3.45;;;1.40;;
43311;SDS011;30041;48.300;16.352;2023-04-15T03:30:55;2.75;;;1.20;;
43311;SDS011;30041;48.300;16.352;2023-04-15T03:33:21;2.72;;;1.40;;
43311;SDS011;30041;48.300;16.352;2023-04-15T03:35:46;3.45;;;1.40;;
43311;SDS011;30041;48.300;16.352;2023-04-15T03:38:12;3.17;;;1.40;;
43311;SDS011;30041;48.300;16.352;2023-04-15T03:40:39;2.67;;;1.30;;
43311;SDS011;30041;48.300;16.352;2023-04-15T03:43:05;2.58;;;1.10;;
43311;SDS011;30041;48.300;16.352;2023-04-15T03:45:33;2.45;;;1.17;;
43311;SDS011;30041;48.300;16.352;2023-04-15T03:47:59;2.00;;;1.00;;
43311;SDS011;30041;48.300;16.352;2023-04-15T03:50:24;2.95;;;1.17;;
43311;SDS011;30041;48.300;16.352;2023-04-15T03:52:50;2.83;;;1.20;;
43311;SDS011;30041;48.300;16.352;2023-04-15T03:55:15;3.45;;;1.35;;
43311;SDS011;30041;48.300;16.352;2023-04-15T03:57:41;2.88;;;1.40;;
43311;SDS011;30041;48.300;16.352;2023-04-15T04:00:07;2.33;;;1.20;;
43311;SDS011;30041;48.300;16.352;2023-04-15T04:02:33;2.03;;;1.00;;
43311;SDS011;30041;48.300;16.352;2023-04-15T04:04:59;1.95;;;1.00;;
43311;SDS011;30041;48.300;16.352;2023-04-15T04:07:24;3.15;;;1.30;;
43311;SDS011;30041;48.300;16.352;2023-04-15T04:09:50;2.13;;;1.05;;
43311;SDS011;30041;48.300;16.352;2023-04-15T04:12:15;2.40;;;1.20;;
43311;SDS011;30041;48.300;16.352;2023-04-15T04:14:41;2.08;;;1.05;;
43311;SDS011;30041;48.300;16.352;2023-04-15T04:17:07;2.45;;;0.98;;
43311;SDS011;30041;48.300;16.352;2023-04-15T04:19:32;3.00;;;1.20;;
43311;SDS011;30041;48.300;16.352;2023-04-15T04:21:58;2.00;;;1.10;;
43311;SDS011;30041;48.300;16.352;2023-04-15T04:24:24;2.22;;;1.10;;
43311;SDS011;30041;48.300;16.352;2023-04-15T04:26:49;1.52;;;0.85;;
43311;SDS011;30041;48.300;16.352;2023-04-15T04:29:15;2.67;;;1.27;;
43311;SDS011;30041;48.300;16.352;2023-04-15T04:31:40;2.45;;;1.10;;
43311;SDS011;30041;48.300;16.352;2023-04-15T04:34:06;2.60;;;1.20;;
43311;SDS011;30041;48.300;16.352;2023-04-15T04:36:31;2.20;;;1.02;;
43311;SDS011;30041;48.300;16.352;2023-04-15T04:38:57;2.35;;;1.00;;
43311;SDS011;30041;48.300;16.352;2023-04-15T04:41:23;2.30;;;1.13;;
43311;SDS011;30041;48.300;16.352;2023-04-15T04:43:48;5.32;;;1.13;;
43311;SDS011;30041;48.300;16.352;2023-04-15T04:46:14;2.70;;;0.98;;
43311;SDS011;30041;48.300;16.352;2023-04-15T04:48:39;2.63;;;1.15;;
43311;SDS011;30041;48.300;16.352;2023-04-15T04:51:05;2.42;;;1.00;;
43311;SDS011;30041;48.300;16.352;2023-04-15T04:53:31;3.10;;;1.13;;
43311;SDS011;30041;48.300;16.352;2023-04-15T04:55:56;1.58;;;0.77;;
43311;SDS011;30041;48.300;16.352;2023-04-15T04:58:22;1.80;;;0.80;;
43311;SDS011;30041;48.300;16.352;2023-04-15T05:00:47;2.83;;;0.90;;
43311;SDS011;30041;48.300;16.352;2023-04-15T05:03:13;3.42;;;0.93;;
43311;SDS011;30041;48.300;16.352;2023-04-15T05:05:38;2.17;;;1.00;;
43311;SDS011;30041;48.300;16.352;2023-04-15T05:08:04;3.45;;;0.98;;
43311;SDS011;30041;48.300;16.352;2023-04-15T05:10:29;2.08;;;1.05;;
43311;SDS011;30041;48.300;16.352;2023-04-15T05:12:55;3.50;;;1.00;;
43311;SDS011;30041;48.300;16.352;2023-04-15T05:15:21;2.60;;;1.00;;
43311;SDS011;30041;48.300;16.352;2023-04-15T05:17:47;1.98;;;0.70;;
43311;SDS011;30041;48.300;16.352;2023-04-15T05:20:12;2.03;;;0.85;;
43311;SDS011;30041;48.300;16.352;2023-04-15T05:22:38;2.78;;;0.90;;
43311;SDS011;30041;48.300;16.352;2023-04-15T05:25:03;2.65;;;1.10;;
43311;SDS011;30041;48.300;16.352;2023-04-15T05:27:29;3.30;;;1.10;;
43311;SDS011;30041;48.300;16.352;2023-04-15T05:29:54;3.22;;;1.13;;
43311;SDS011;30041;48.300;16.352;2023-04-15T05:32:20;3.50;;;0.93;;
43311;SDS011;30041;48.300;16.352;2023-04-15T05:34:45;3.05;;;1.73;;
43311;SDS011;30041;48.300;16.352;2023-04-15T05:37:11;5.18;;;1.38;;
43311;SDS011;30041;48.300;16.352;2023-04-15T05:39:37;2.13;;;1.00;;
43311;SDS011;30041;48.300;16.352;2023-04-15T05:42:02;4.07;;;1.20;;
43311;SDS011;30041;48.300;16.352;2023-04-15T05:44:28;3.10;;;1.38;;
43311;SDS011;30041;48.300;16.352;2023-04-15T05:46:53;4.28;;;1.58;;
43311;SDS011;30041;48.300;16.352;2023-04-15T05:49:19;2.95;;;1.33;;
43311;SDS011;30041;48.300;16.352;2023-04-15T05:51:46;6.43;;;1.60;;
43311;SDS011;30041;48.300;16.352;2023-04-15T05:54:12;3.10;;;1.33;;
43311;SDS011;30041;48.300;16.352;2023-04-15T05:56:37;3.60;;;1.27;;
43311;SDS011;30041;48.300;16.352;2023-04-15T05:59:03;3.58;;;1.30;;
43311;SDS011;30041;48.300;16.352;2023-04-15T06:01:28;2.50;;;1.00;;
43311;SDS011;30041;48.300;16.352;2023-04-15T06:03:54;2.38;;;1.02;;
43311;SDS011;30041;48.300;16.352;2023-04-15T06:06:19;2.30;;;1.20;;
43311;SDS011;30041;48.300;16.352;2023-04-15T06:08:45;2.95;;;1.40;;
43311;SDS011;30041;48.300;16.352;2023-04-15T06:11:10;3.33;;;1.33;;
43311;SDS011;30041;48.300;16.352;2023-04-15T06:13:36;3.58;;;1.10;;
43311;SDS011;30041;48.300;16.352;2023-04-15T06:16:01;2.80;;;1.10;;
43311;SDS011;30041;48.300;16.352;2023-04-15T06:18:27;2.38;;;1.20;;
43311;SDS011;30041;48.300;16.352;2023-04-15T06:20:52;2.13;;;1.20;;
43311;SDS011;30041;48.300;16.352;2023-04-15T06:23:18;4.20;;;1.10;;
43311;SDS011;30041;48.300;16.352;2023-04-15T06:25:43;2.53;;;0.95;;
43311;SDS011;30041;48.300;16.352;2023-04-15T06:28:09;2.78;;;1.15;;
43311;SDS011;30041;48.300;16.352;2023-04-15T06:30:34;2.50;;;1.08;;
43311;SDS011;30041;48.300;16.352;2023-04-15T06:33:00;1.80;;;1.00;;
43311;SDS011;30041;48.300;16.352;2023-04-15T06:35:26;3.13;;;1.10;;
43311;SDS011;30041;48.300;16.352;2023-04-15T06:37:51;3.58;;;1.10;;
43311;SDS011;30041;48.300;16.352;2023-04-15T06:40:17;2.88;;;1.10;;
43311;SDS011;30041;48.300;16.352;2023-04-15T06:42:42;2.15;;;0.82;;
43311;SDS011;30041;48.300;16.352;2023-04-15T06:45:08;2.22;;;1.10;;
43311;SDS011;30041;48.300;16.352;2023-04-15T06:47:33;4.22;;;1.25;;
43311;SDS011;30041;48.300;16.352;2023-04-15T06:49:59;2.38;;;1.05;;
43311;SDS011;30041;48.300;16.352;2023-04-15T06:52:24;3.25;;;1.20;;
43311;SDS011;30041;48.300;16.352;2023-04-15T06:54:50;2.28;;;1.08;;
43311;SDS011;30041;48.300;16.352;2023-04-15T06:57:15;2.97;;;0.95;;
43311;SDS011;30041;48.300;16.352;2023-04-15T06:59:41;2.45;;;1.08;;
43311;SDS011;30041;48.300;16.352;2023-04-15T07:02:06;1.85;;;0.80;;
43311;SDS011;30041;48.300;16.352;2023-04-15T07:04:36;2.00;;;1.10;;
43311;SDS011;30041;48.300;16.352;2023-04-15T07:07:01;2.10;;;0.95;;
43311;SDS011;30041;48.300;16.352;2023-04-15T07:09:27;2.80;;;1.00;;
43311;SDS011;30041;48.300;16.352;2023-04-15T07:11:52;2.00;;;1.10;;
43311;SDS011;30041;48.300;16.352;2023-04-15T07:14:18;2.13;;;1.00;;
43311;SDS011;30041;48.300;16.352;2023-04-15T07:16:43;2.00;;;0.90;;
43311;SDS011;30041;48.300;16.352;2023-04-15T07:19:09;2.30;;;0.95;;
43311;SDS011;30041;48.300;16.352;2023-04-15T07:21:34;2.08;;;1.17;;
43311;SDS011;30041;48.300;16.352;2023-04-15T07:24:00;1.98;;;0.90;;
43311;SDS011;30041;48.300;16.352;2023-04-15T07:26:25;9.02;;;1.00;;
43311;SDS011;30041;48.300;16.352;2023-04-15T07:28:51;9.93;;;1.35;;
43311;SDS011;30041;48.300;16.352;2023-04-15T07:31:16;6.95;;;1.10;;
43311;SDS011;30041;48.300;16.352;2023-04-15T07:33:41;7.15;;;1.35;;
43311;SDS011;30041;48.300;16.352;2023-04-15T07:36:08;5.55;;;1.88;;
43311;SDS011;30041;48.300;16.352;2023-04-15T07:38:33;4.75;;;1.35;;
43311;SDS011;30041;48.300;16.352;2023-04-15T07:40:59;6.45;;;1.30;;
43311;SDS011;30041;48.300;16.352;2023-04-15T07:43:24;4.75;;;1.40;;
43311;SDS011;30041;48.300;16.352;2023-04-15T07:45:50;4.38;;;1.10;;
43311;SDS011;30041;48.300;16.352;2023-04-15T07:48:15;4.45;;;1.33;;
43311;SDS011;30041;48.300;16.352;2023-04-15T07:50:40;5.13;;;1.25;;
43311;SDS011;30041;48.300;16.352;2023-04-15T07:53:06;5.88;;;1.15;;
43311;SDS011;30041;48.300;16.352;2023-04-15T07:55:32;3.17;;;1.25;;
43311;SDS011;30041;48.300;16.352;2023-04-15T07:57:57;4.32;;;1.10;;
43311;SDS011;30041;48.300;16.352;2023-04-15T08:00:23;5.50;;;1.10;;
43311;SDS011;30041;48.300;16.352;2023-04-15T08:02:48;2.00;;;0.90;;
43311;SDS011;30041;48.300;16.352;2023-04-15T08:05:14;4.10;;;1.00;;
43311;SDS011;30041;48.300;16.352;2023-04-15T08:07:39;3.25;;;1.00;;
43311;SDS011;30041;48.300;16.352;2023-04-15T08:10:05;3.88;;;1.02;;
43311;SDS011;30041;48.300;16.352;2023-04-15T08:12:31;3.05;;;0.98;;
43311;SDS011;30041;48.300;16.352;2023-04-15T08:14:57;3.63;;;0.95;;
43311;SDS011;30041;48.300;16.352;2023-04-15T08:17:23;2.67;;;0.80;;
43311;SDS011;30041;48.300;16.352;2023-04-15T08:19:49;3.92;;;1.05;;
43311;SDS011;30041;48.300;16.352;2023-04-15T08:22:14;7.80;;;1.00;;
43311;SDS011;30041;48.300;16.352;2023-04-15T08:24:40;6.07;;;1.00;;
43311;SDS011;30041;48.300;16.352;2023-04-15T08:27:05;4.15;;;0.90;;
43311;SDS011;30041;48.300;16.352;2023-04-15T08:29:31;5.50;;;0.90;;
43311;SDS011;30041;48.300;16.352;2023-04-15T08:31:58;4.03;;;0.93;;
43311;SDS011;30041;48.300;16.352;2023-04-15T08:34:24;4.22;;;0.98;;
43311;SDS011;30041;48.300;16.352;2023-04-15T08:36:49;2.92;;;0.90;;
43311;SDS011;30041;48.300;16.352;2023-04-15T08:39:16;2.53;;;0.60;;
43311;SDS011;30041;48.300;16.352;2023-04-15T08:41:45;4.15;;;0.90;;
43311;SDS011;30041;48.300;16.352;2023-04-15T08:44:12;2.33;;;0.90;;
43311;SDS011;30041;48.300;16.352;2023-04-15T08:46:38;3.20;;;0.80;;
43311;SDS011;30041;48.300;16.352;2023-04-15T08:49:05;5.10;;;1.10;;
43311;SDS011;30041;48.300;16.352;2023-04-15T08:51:34;6.13;;;1.00;;
43311;SDS011;30041;48.300;16.352;2023-04-15T08:54:00;3.70;;;0.82;;
43311;SDS011;30041;48.300;16.352;2023-04-15T08:56:26;2.10;;;0.80;;
43311;SDS011;30041;48.300;16.352;2023-04-15T08:58:54;3.05;;;0.70;;
43311;SDS011;30041;48.300;16.352;2023-04-15T09:01:21;4.35;;;0.88;;
43311;SDS011;30041;48.300;16.352;2023-04-15T09:03:47;4.03;;;0.88;;
43311;SDS011;30041;48.300;16.352;2023-04-15T09:06:13;1.65;;;0.80;;
43311;SDS011;30041;48.300;16.352;2023-04-15T09:08:41;1.23;;;0.55;;
43311;SDS011;30041;48.300;16.352;2023-04-15T09:11:06;4.32;;;0.93;;
43311;SDS011;30041;48.300;16.352;2023-04-15T09:13:32;1.20;;;0.50;;
43311;SDS011;30041;48.300;16.352;2023-04-15T09:15:57;1.88;;;0.70;;
43311;SDS011;30041;48.300;16.352;2023-04-15T09:18:34;2.67;;;0.77;;
43311;SDS011;30041;48.300;16.352;2023-04-15T09:21:16;7.32;;;0.90;;
43311;SDS011;30041;48.300;16.352;2023-04-15T09:23:55;9.68;;;1.20;;
43311;SDS011;30041;48.300;16.352;2023-04-15T09:26:32;9.57;;;0.98;;
43311;SDS011;30041;48.300;16.352;2023-04-15T09:29:02;4.60;;;0.90;;
43311;SDS011;30041;48.300;16.352;2023-04-15T09:31:29;4.57;;;1.00;;
43311;SDS011;30041;48.300;16.352;2023-04-15T09:33:54;6.05;;;1.00;;
43311;SDS011;30041;48.300;16.352;2023-04-15T09:36:20;5.53;;;1.20;;
43311;SDS011;30041;48.300;16.352;2023-04-15T09:38:55;11.00;;;1.20;;
43311;SDS011;30041;48.300;16.352;2023-04-15T09:41:22;4.10;;;0.80;;
43311;SDS011;30041;48.300;16.352;2023-04-15T09:43:48;5.22;;;1.00;;
43311;SDS011;30041;48.300;16.352;2023-04-15T09:46:14;4.47;;;1.00;;
43311;SDS011;30041;48.300;16.352;2023-04-15T09:48:39;5.80;;;0.90;;
43311;SDS011;30041;48.300;16.352;2023-04-15T09:51:05;3.55;;;0.82;;
43311;SDS011;30041;48.300;16.352;2023-04-15T09:53:32;5.25;;;0.80;;
43311;SDS011;30041;48.300;16.352;2023-04-15T09:55:59;3.75;;;0.63;;
43311;SDS011;30041;48.300;16.352;2023-04-15T09:58:25;3.20;;;0.75;;
43311;SDS011;30041;48.300;16.352;2023-04-15T10:00:53;2.45;;;0.60;;
43311;SDS011;30041;48.300;16.352;2023-04-15T10:03:20;3.15;;;0.60;;
43311;SDS011;30041;48.300;16.352;2023-04-15T10:05:53;4.25;;;0.80;;
43311;SDS011;30041;48.300;16.352;2023-04-15T10:08:21;5.30;;;0.80;;
43311;SDS011;30041;48.300;16.352;2023-04-15T10:10:48;5.70;;;0.90;;
43311;SDS011;30041;48.300;16.352;2023-04-15T10:13:16;12.80;;;1.00;;
43311;SDS011;30041;48.300;16.352;2023-04-15T10:15:44;6.93;;;1.17;;
43311;SDS011;30041;48.300;16.352;2023-04-15T10:18:27;10.98;;;1.20;;
43311;SDS011;30041;48.300;16.352;2023-04-15T10:20:54;12.15;;;1.20;;
43311;SDS011;30041;48.300;16.352;2023-04-15T10:23:21;12.45;;;1.20;;
43311;SDS011;30041;48.300;16.352;2023-04-15T10:25:51;11.52;;;1.20;;
43311;SDS011;30041;48.300;16.352;2023-04-15T10:28:17;8.15;;;0.80;;
43311;SDS011;30041;48.300;16.352;2023-04-15T10:30:44;8.65;;;0.85;;
43311;SDS011;30041;48.300;16.352;2023-04-15T10:33:10;6.15;;;0.85;;
43311;SDS011;30041;48.300;16.352;2023-04-15T10:35:40;5.60;;;0.93;;
43311;SDS011;30041;48.300;16.352;2023-04-15T10:43:46;2.65;;;0.82;;
43311;SDS011;30041;48.300;16.352;2023-04-15T10:46:21;3.80;;;1.00;;
43311;SDS011;30041;48.300;16.352;2023-04-15T10:48:49;6.40;;;0.90;;
43311;SDS011;30041;48.300;16.352;2023-04-15T10:51:16;6.05;;;0.90;;
43311;SDS011;30041;48.300;16.352;2023-04-15T10:53:54;2.97;;;0.68;;
43311;SDS011;30041;48.300;16.352;2023-04-15T10:56:20;3.65;;;0.80;;
43311;SDS011;30041;48.300;16.352;2023-04-15T10:58:46;4.25;;;1.02;;
43311;SDS011;30041;48.300;16.352;2023-04-15T11:01:11;1.98;;;0.50;;
43311;SDS011;30041;48.300;16.352;2023-04-15T11:03:38;4.00;;;0.90;;
43311;SDS011;30041;48.300;16.352;2023-04-15T11:06:06;3.55;;;0.60;;
43311;SDS011;30041;48.300;16.352;2023-04-15T11:11:21;2.25;;;0.70;;
43311;SDS011;30041;48.300;16.352;2023-04-15T11:13:47;3.90;;;0.70;;
43311;SDS011;30041;48.300;16.352;2023-04-15T11:16:14;4.03;;;0.70;;
43311;SDS011;30041;48.300;16.352;2023-04-15T11:18:40;5.43;;;0.70;;
43311;SDS011;30041;48.300;16.352;2023-04-15T11:21:06;3.90;;;0.70;;
43311;SDS011;30041;48.300;16.352;2023-04-15T11:23:42;4.30;;;0.60;;
43311;SDS011;30041;48.300;16.352;2023-04-15T11:26:08;4.13;;;0.70;;
43311;SDS011;30041;48.300;16.352;2023-04-15T11:28:35;3.72;;;0.73;;
43311;SDS011;30041;48.300;16.352;2023-04-15T11:31:05;2.67;;;0.50;;
43311;SDS011;30041;48.300;16.352;2023-04-15T11:33:31;4.28;;;0.80;;
43311;SDS011;30041;48.300;16.352;2023-04-15T11:35:57;5.65;;;0.80;;
43311;SDS011;30041;48.300;16.352;2023-04-15T11:38:23;4.70;;;0.60;;
43311;SDS011;30041;48.300;16.352;2023-04-15T11:40:49;7.25;;;0.82;;
43311;SDS011;30041;48.300;16.352;2023-04-15T11:43:15;9.55;;;1.30;;
43311;SDS011;30041;48.300;16.352;2023-04-15T11:45:50;9.15;;;1.10;;
43311;SDS011;30041;48.300;16.352;2023-04-15T11:48:17;10.90;;;1.20;;
43311;SDS011;30041;48.300;16.352;2023-04-15T11:50:44;7.18;;;1.15;;
43311;SDS011;30041;48.300;16.352;2023-04-15T11:53:10;3.67;;;0.82;;
43311;SDS011;30041;48.300;16.352;2023-04-15T11:55:47;8.25;;;1.30;;
43311;SDS011;30041;48.300;16.352;2023-04-15T11:58:21;4.88;;;1.00;;
43311;SDS011;30041;48.300;16.352;2023-04-15T12:00:50;5.38;;;1.10;;
43311;SDS011;30041;48.300;16.352;2023-04-15T12:03:19;4.00;;;1.00;;
43311;SDS011;30041;48.300;16.352;2023-04-15T12:08:47;5.68;;;0.88;;
43311;SDS011;30041;48.300;16.352;2023-04-15T12:11:17;6.43;;;0.88;;
43311;SDS011;30041;48.300;16.352;2023-04-15T12:13:47;3.35;;;0.90;;
43311;SDS011;30041;48.300;16.352;2023-04-15T12:16:17;3.92;;;1.08;;
43311;SDS011;30041;48.300;16.352;2023-04-15T12:18:44;3.78;;;0.95;;
43311;SDS011;30041;48.300;16.352;2023-04-15T12:21:11;2.55;;;0.82;;
43311;SDS011;30041;48.300;16.352;2023-04-15T12:24:10;4.05;;;0.88;;
43311;SDS011;30041;48.300;16.352;2023-04-15T12:26:33;7.57;;;1.33;;
43311;SDS011;30041;48.300;16.352;2023-04-15T12:29:02;5.00;;;0.85;;
43311;SDS011;30041;48.300;16.352;2023-04-15T12:31:29;5.28;;;0.95;;
43311;SDS011;30041;48.300;16.352;2023-04-15T12:33:55;4.40;;;0.88;;
43311;SDS011;30041;48.300;16.352;2023-04-15T12:36:21;5.47;;;0.80;;
43311;SDS011;30041;48.300;16.352;2023-04-15T12:38:47;2.92;;;0.73;;
43311;SDS011;30041;48.300;16.352;2023-04-15T12:41:13;2.47;;;0.90;;
43311;SDS011;30041;48.300;16.352;2023-04-15T12:43:38;3.92;;;0.65;;
43311;SDS011;30041;48.300;16.352;2023-04-15T12:46:03;4.32;;;0.80;;
43311;SDS011;30041;48.300;16.352;2023-04-15T12:48:29;2.33;;;0.68;;
43311;SDS011;30041;48.300;16.352;2023-04-15T12:50:55;5.85;;;0.95;;
43311;SDS011;30041;48.300;16.352;2023-04-15T12:53:20;2.95;;;0.60;;
43311;SDS011;30041;48.300;16.352;2023-04-15T12:55:46;1.70;;;0.57;;
43311;SDS011;30041;48.300;16.352;2023-04-15T12:58:11;2.70;;;0.80;;
43311;SDS011;30041;48.300;16.352;2023-04-15T13:00:37;1.75;;;0.43;;
43311;SDS011;30041;48.300;16.352;2023-04-15T13:03:03;2.88;;;0.50;;
43311;SDS011;30041;48.300;16.352;2023-04-15T13:05:28;3.63;;;0.80;;
43311;SDS011;30041;48.300;16.352;2023-04-15T13:07:54;2.55;;;0.70;;
43311;SDS011;30041;48.300;16.352;2023-04-15T13:10:19;3.50;;;0.80;;
43311;SDS011;30041;48.300;16.352;2023-04-15T13:12:45;9.55;;;1.08;;
43311;SDS011;30041;48.300;16.352;2023-04-15T13:15:10;9.43;;;0.95;;
43311;SDS011;30041;48.300;16.352;2023-04-15T13:17:36;7.18;;;0.90;;
43311;SDS011;30041;48.300;16.352;2023-04-15T13:20:02;7.88;;;0.80;;
43311;SDS011;30041;48.300;16.352;2023-04-15T13:22:28;12.63;;;1.48;;
43311;SDS011;30041;48.300;16.352;2023-04-15T13:24:54;8.13;;;1.30;;
43311;SDS011;30041;48.300;16.352;2023-04-15T13:27:19;7.95;;;1.10;;
43311;SDS011;30041;48.300;16.352;2023-04-15T13:29:45;6.05;;;0.90;;
43311;SDS011;30041;48.300;16.352;2023-04-15T13:32:10;4.00;;;0.65;;
43311;SDS011;30041;48.300;16.352;2023-04-15T13:34:36;5.15;;;0.77;;
43311;SDS011;30041;48.300;16.352;2023-04-15T13:37:06;2.58;;;0.50;;
43311;SDS011;30041;48.300;16.352;2023-04-15T13:39:32;3.33;;;0.70;;
43311;SDS011;30041;48.300;16.352;2023-04-15T13:41:57;1.90;;;0.57;;
43311;SDS011;30041;48.300;16.352;2023-04-15T13:44:23;3.20;;;0.60;;
43311;SDS011;30041;48.300;16.352;2023-04-15T13:46:48;4.80;;;0.80;;
43311;SDS011;30041;48.300;16.352;2023-04-15T13:49:14;5.82;;;0.70;;
43311;SDS011;30041;48.300;16.352;2023-04-15T13:51:39;3.13;;;0.70;;
43311;SDS011;30041;48.300;16.352;2023-04-15T13:54:05;3.67;;;0.65;;
43311;SDS011;30041;48.300;16.352;2023-04-15T13:56:31;3.97;;;0.80;;
43311;SDS011;30041;48.300;16.352;2023-04-15T13:58:56;1.88;;;0.50;;
43311;SDS011;30041;48.300;16.352;2023-04-15T14:01:22;2.72;;;0.60;;
43311;SDS011;30041;48.300;16.352;2023-04-15T14:03:47;3.28;;;0.43;;
43311;SDS011;30041;48.300;16.352;2023-04-15T14:06:13;2.78;;;0.57;;
43311;SDS011;30041;48.300;16.352;2023-04-15T14:08:38;0.95;;;0.40;;
43311;SDS011;30041;48.300;16.352;2023-04-15T14:11:05;1.52;;;0.40;;
43311;SDS011;30041;48.300;16.352;2023-04-15T14:13:30;2.22;;;0.60;;
43311;SDS011;30041;48.300;16.352;2023-04-15T14:15:56;4.78;;;0.77;;
43311;SDS011;30041;48.300;16.352;2023-04-15T14:18:21;5.90;;;0.80;;
43311;SDS011;30041;48.300;16.352;2023-04-15T14:20:47;3.20;;;0.63;;
43311;SDS011;30041;48.300;16.352;2023-04-15T14:23:12;4.40;;;0.57;;
43311;SDS011;30041;48.300;16.352;2023-04-15T14:25:38;3.20;;;0.80;;
43311;SDS011;30041;48.300;16.352;2023-04-15T14:28:03;4.50;;;0.95;;
43311;SDS011;30041;48.300;16.352;2023-04-15T14:30:29;8.90;;;1.15;;
43311;SDS011;30041;48.300;16.352;2023-04-15T14:32:54;9.20;;;1.23;;
43311;SDS011;30041;48.300;16.352;2023-04-15T14:35:20;7.82;;;1.23;;
43311;SDS011;30041;48.300;16.352;2023-04-15T14:37:45;9.20;;;1.00;;
43311;SDS011;30041;48.300;16.352;2023-04-15T14:40:11;6.82;;;0.95;;